createdAt,value
2022-09-23T00:01:25.390Z,1.30
2022-09-23T00:03:54.770Z,1.13
2022-09-23T00:06:23.752Z,1.00
2022-09-23T00:08:52.769Z,1.00
2022-09-23T00:11:22.257Z,1.27
2022-09-23T00:13:52.719Z,1.15
2022-09-23T00:16:23.641Z,1.17
2022-09-23T00:18:51.564Z,1.10
2022-09-23T00:21:22.560Z,1.08
2022-09-23T00:23:50.764Z,1.10
2022-09-23T00:26:20.460Z,1.00
2022-09-23T00:28:49.033Z,1.10
2022-09-23T00:31:20.422Z,1.13
2022-09-23T00:33:48.399Z,1.02
2022-09-23T00:36:17.345Z,1.00
2022-09-23T00:38:46.926Z,1.00
2022-09-23T00:41:16.281Z,1.10
2022-09-23T00:43:46.353Z,1.10
2022-09-23T00:46:17.645Z,0.90
2022-09-23T00:48:46.498Z,1.20
2022-09-23T00:51:19.331Z,0.95
2022-09-23T00:53:50.103Z,1.00
2022-09-23T00:56:19.460Z,1.10
2022-09-23T00:58:48.433Z,1.10
2022-09-23T01:01:16.699Z,1.10
2022-09-23T01:03:46.229Z,1.17
2022-09-23T01:06:14.555Z,0.98
2022-09-23T01:08:44.267Z,1.13
2022-09-23T01:11:27.418Z,1.10
2022-09-23T01:14:17.060Z,1.08
2022-09-23T01:16:52.250Z,0.90
2022-09-23T01:19:38.734Z,1.20
2022-09-23T01:22:11.027Z,0.98
2022-09-23T01:24:48.554Z,1.00
2022-09-23T01:27:38.380Z,1.15
2022-09-23T01:30:15.207Z,1.10
2022-09-23T01:32:54.551Z,1.30
2022-09-23T01:35:30.379Z,0.98
2022-09-23T01:38:03.422Z,1.00
2022-09-23T01:40:36.861Z,1.42
2022-09-23T01:43:07.428Z,1.50
2022-09-23T01:45:38.670Z,1.20
2022-09-23T01:48:13.858Z,1.00
2022-09-23T01:50:59.948Z,0.95
2022-09-23T01:53:34.835Z,1.08
2022-09-23T01:56:06.804Z,1.20
2022-09-23T01:58:40.948Z,1.30
2022-09-23T02:01:10.156Z,1.13
2022-09-23T02:03:43.706Z,1.20
2022-09-23T02:06:14.502Z,1.30
2022-09-23T02:08:44.420Z,1.17
2022-09-23T02:11:15.271Z,1.45
2022-09-23T02:13:48.575Z,1.02
2022-09-23T02:16:25.489Z,1.33
2022-09-23T02:18:58.080Z,1.45
2022-09-23T02:21:28.129Z,1.50
2022-09-23T02:24:00.463Z,1.50
2022-09-23T02:26:31.792Z,1.50
2022-09-23T02:29:09.999Z,1.27
2022-09-23T02:31:41.735Z,1.42
2022-09-23T02:34:18.835Z,1.40
2022-09-23T02:37:05.358Z,1.40
2022-09-23T02:39:37.803Z,1.45
2022-09-23T02:42:08.096Z,1.45
2022-09-23T02:44:36.079Z,1.55
2022-09-23T02:47:04.258Z,1.30
2022-09-23T02:49:36.509Z,1.40
2022-09-23T02:52:05.883Z,1.40
2022-09-23T02:54:35.342Z,1.20
2022-09-23T02:57:06.801Z,1.40
2022-09-23T02:59:35.259Z,1.63
2022-09-23T03:02:26.546Z,1.63
2022-09-23T03:04:59.936Z,1.65
2022-09-23T03:07:33.028Z,1.65
2022-09-23T03:10:06.012Z,1.60
2022-09-23T03:12:39.195Z,1.83
2022-09-23T03:15:20.133Z,1.80
2022-09-23T03:17:53.877Z,1.90
2022-09-23T03:20:26.574Z,2.10
2022-09-23T03:22:58.288Z,1.77
2022-09-23T03:25:26.884Z,1.88
2022-09-23T03:27:57.021Z,1.90
2022-09-23T03:30:26.431Z,1.90
2022-09-23T03:32:55.976Z,1.77
2022-09-23T03:35:26.147Z,2.08
2022-09-23T03:37:56.518Z,1.80
2022-09-23T03:40:27.981Z,2.10
2022-09-23T03:42:57.096Z,2.20
2022-09-23T03:45:31.153Z,2.03
2022-09-23T03:47:59.137Z,2.38
2022-09-23T03:50:28.730Z,2.05
2022-09-23T03:52:56.898Z,2.45
2022-09-23T03:55:24.960Z,2.42
2022-09-23T03:57:53.151Z,2.15
2022-09-23T04:00:21.245Z,2.28
2022-09-23T04:02:49.823Z,2.25
2022-09-23T04:05:17.994Z,2.65
2022-09-23T04:07:48.081Z,2.20
2022-09-23T04:10:16.001Z,2.35
2022-09-23T04:12:43.857Z,2.33
2022-09-23T04:15:11.936Z,2.58
2022-09-23T04:17:39.799Z,2.75
2022-09-23T04:20:08.308Z,2.70
2022-09-23T04:22:38.586Z,2.50
2022-09-23T04:25:09.233Z,2.60
2022-09-23T04:27:38.048Z,2.72
2022-09-23T04:30:07.007Z,2.45
2022-09-23T04:32:34.918Z,2.80
2022-09-23T04:35:02.785Z,2.70
2022-09-23T04:37:30.626Z,2.90
2022-09-23T04:39:58.483Z,2.47
2022-09-23T04:42:29.457Z,2.45
2022-09-23T04:44:57.872Z,2.45
2022-09-23T04:47:26.054Z,3.33
2022-09-23T04:49:59.060Z,2.30
2022-09-23T04:52:28.125Z,2.55
2022-09-23T04:54:55.987Z,2.72
2022-09-23T04:57:24.530Z,2.42
2022-09-23T04:59:54.878Z,2.53
2022-09-23T05:02:22.797Z,2.42
2022-09-23T05:04:50.654Z,2.50
2022-09-23T05:07:19.090Z,2.50
2022-09-23T05:09:47.172Z,2.38
2022-09-23T05:12:15.027Z,2.40
2022-09-23T05:14:42.960Z,2.53
2022-09-23T05:17:12.292Z,2.22
2022-09-23T05:19:40.155Z,2.28
2022-09-23T05:22:10.418Z,2.33
2022-09-23T05:24:45.726Z,2.50
2022-09-23T05:27:16.615Z,2.53
2022-09-23T05:29:44.610Z,2.85
2022-09-23T05:32:14.439Z,2.55
2022-09-23T05:34:43.002Z,2.35
2022-09-23T05:37:11.020Z,2.78
2022-09-23T05:39:38.938Z,2.17
2022-09-23T05:42:07.159Z,2.60
2022-09-23T05:44:35.022Z,2.53
2022-09-23T05:47:03.099Z,2.45
2022-09-23T05:49:55.323Z,2.88
2022-09-23T05:52:20.389Z,2.25
2022-09-23T05:54:49.889Z,2.33
2022-09-23T05:57:18.328Z,2.22
2022-09-23T05:59:47.713Z,2.10
2022-09-23T06:02:16.084Z,2.10
2022-09-23T06:04:45.438Z,2.40
2022-09-23T06:07:13.292Z,2.15
2022-09-23T06:09:42.312Z,2.13
2022-09-23T06:12:10.257Z,2.20
2022-09-23T06:14:38.392Z,2.50
2022-09-23T06:17:06.726Z,2.10
2022-09-23T06:19:34.640Z,2.00
2022-09-23T06:22:04.423Z,2.20
2022-09-23T06:24:32.414Z,1.80
2022-09-23T06:27:01.354Z,2.10
2022-09-23T06:29:31.238Z,2.20
2022-09-23T06:32:00.466Z,1.88
2022-09-23T06:34:31.287Z,2.05
2022-09-23T06:37:08.404Z,1.77
2022-09-23T06:39:41.405Z,1.80
2022-09-23T06:42:09.320Z,1.95
2022-09-23T06:44:37.163Z,1.90
2022-09-23T06:47:05.206Z,1.98
2022-09-23T06:49:33.896Z,1.95
2022-09-23T06:52:01.976Z,2.35
2022-09-23T06:54:30.714Z,1.77
2022-09-23T06:56:59.947Z,1.83
2022-09-23T06:59:28.003Z,1.92
2022-09-23T07:01:55.964Z,1.50
2022-09-23T07:04:28.612Z,2.10
2022-09-23T07:06:57.407Z,1.90
2022-09-23T07:09:25.939Z,2.00
2022-09-23T07:11:53.843Z,2.15
2022-09-23T07:14:23.391Z,1.90
2022-09-23T07:16:53.234Z,1.75
2022-09-23T07:19:21.160Z,1.77
2022-09-23T07:21:50.012Z,1.90
2022-09-23T07:24:19.019Z,2.40
2022-09-23T07:26:46.986Z,2.03
2022-09-23T07:29:15.596Z,2.63
2022-09-23T07:31:44.983Z,2.38
2022-09-23T07:34:13.070Z,2.50
2022-09-23T07:36:41.629Z,2.33
2022-09-23T07:39:11.112Z,2.25
2022-09-23T07:41:39.802Z,2.00
2022-09-23T07:44:08.797Z,2.13
2022-09-23T07:46:37.364Z,1.77
2022-09-23T07:49:07.161Z,1.92
2022-09-23T07:51:37.065Z,1.98
2022-09-23T07:54:07.592Z,1.65
2022-09-23T07:56:36.130Z,1.58
2022-09-23T07:59:04.654Z,1.95
2022-09-23T08:01:34.141Z,1.70
2022-09-23T08:04:04.002Z,1.65
2022-09-23T08:06:33.536Z,1.27
2022-09-23T08:09:02.431Z,1.60
2022-09-23T08:11:31.304Z,1.35
2022-09-23T08:13:59.596Z,1.80
2022-09-23T08:16:27.592Z,1.80
2022-09-23T08:18:55.523Z,1.15
2022-09-23T08:21:24.018Z,1.65
2022-09-23T08:23:53.236Z,1.52
2022-09-23T08:26:22.405Z,1.63
2022-09-23T08:28:51.330Z,1.70
2022-09-23T08:31:19.338Z,1.30
2022-09-23T08:33:47.270Z,1.30
2022-09-23T08:36:15.172Z,1.45
2022-09-23T08:38:43.064Z,1.23
2022-09-23T08:41:19.358Z,1.50
2022-09-23T08:43:50.023Z,1.30
2022-09-23T08:46:23.482Z,1.30
2022-09-23T08:48:51.660Z,1.55
2022-09-23T08:51:23.928Z,1.70
2022-09-23T08:53:51.947Z,1.65
2022-09-23T08:56:24.235Z,1.60
2022-09-23T08:58:57.497Z,1.58
2022-09-23T09:01:28.761Z,1.77
2022-09-23T09:03:58.175Z,1.80
2022-09-23T09:06:30.910Z,1.40
2022-09-23T09:09:02.052Z,1.60
2022-09-23T09:11:35.321Z,1.58
2022-09-23T09:14:14.307Z,1.50
2022-09-23T09:17:00.560Z,1.50
2022-09-23T09:19:48.354Z,2.08
2022-09-23T09:22:21.776Z,1.45
2022-09-23T09:24:50.583Z,1.67
2022-09-23T09:27:20.201Z,2.15
2022-09-23T09:29:50.811Z,1.40
2022-09-23T09:32:25.579Z,1.50
2022-09-23T09:34:57.298Z,1.60
2022-09-23T09:37:32.932Z,1.70
2022-09-23T09:40:01.001Z,1.73
2022-09-23T09:42:39.908Z,1.42
2022-09-23T09:45:13.071Z,1.45
2022-09-23T09:47:47.368Z,1.30
2022-09-23T09:50:21.649Z,1.45
2022-09-23T09:52:56.164Z,1.40
2022-09-23T09:55:28.542Z,1.40
2022-09-23T09:58:01.721Z,1.40
2022-09-23T10:00:40.701Z,1.38
2022-09-23T10:03:24.386Z,1.85
2022-09-23T10:05:54.354Z,1.30
2022-09-23T10:08:25.961Z,1.50
2022-09-23T10:10:55.589Z,1.15
2022-09-23T10:13:26.343Z,1.58
2022-09-23T10:15:55.335Z,1.50
2022-09-23T10:18:29.874Z,1.40
2022-09-23T10:21:02.520Z,1.50
2022-09-23T10:23:33.438Z,1.50
2022-09-23T10:26:02.959Z,1.40
2022-09-23T10:28:41.799Z,1.50
2022-09-23T10:31:11.858Z,1.30
2022-09-23T10:33:46.206Z,1.50
2022-09-23T10:36:15.974Z,1.25
2022-09-23T10:38:43.841Z,1.30
2022-09-23T10:41:35.571Z,1.10
2022-09-23T10:44:30.212Z,1.52
2022-09-23T10:47:04.112Z,1.10
2022-09-23T10:49:59.053Z,1.35
2022-09-23T10:52:43.625Z,1.27
2022-09-23T10:55:20.837Z,1.27
2022-09-23T10:58:00.645Z,0.93
2022-09-23T11:00:38.690Z,1.40
2022-09-23T11:03:35.172Z,0.98
2022-09-23T11:06:14.223Z,1.05
2022-09-23T11:08:58.655Z,1.05
2022-09-23T11:11:35.535Z,0.93
2022-09-23T11:14:17.956Z,1.17
2022-09-23T11:17:04.276Z,1.20
2022-09-23T11:20:00.239Z,1.20
2022-09-23T11:22:37.966Z,1.20
2022-09-23T11:25:19.327Z,1.30
2022-09-23T11:28:06.992Z,1.02
2022-09-23T11:30:42.436Z,1.20
2022-09-23T11:33:29.860Z,1.02
2022-09-23T11:36:00.372Z,1.00
2022-09-23T11:38:32.916Z,1.15
2022-09-23T11:41:04.963Z,1.00
2022-09-23T11:43:37.580Z,0.95
2022-09-23T11:46:12.101Z,0.90
2022-09-23T11:48:44.841Z,1.10
2022-09-23T11:51:17.360Z,1.20
2022-09-23T11:53:48.015Z,1.10
2022-09-23T11:56:33.012Z,1.10
2022-09-23T11:59:07.213Z,1.75
2022-09-23T12:01:41.046Z,1.05
2022-09-23T12:04:21.185Z,1.00
2022-09-23T12:06:52.384Z,0.90
2022-09-23T12:09:41.010Z,0.90
2022-09-23T12:12:17.813Z,0.95
2022-09-23T12:14:54.222Z,1.17
2022-09-23T12:17:30.409Z,0.80
2022-09-23T12:20:30.375Z,1.00
2022-09-23T12:23:09.679Z,0.85
2022-09-23T12:25:46.399Z,0.95
2022-09-23T12:28:18.327Z,1.00
2022-09-23T12:30:46.746Z,1.30
2022-09-23T12:33:25.323Z,1.02
2022-09-23T12:35:56.429Z,1.20
2022-09-23T12:38:26.321Z,1.33
2022-09-23T12:40:55.796Z,1.35
2022-09-23T12:43:30.792Z,1.05
2022-09-23T12:46:25.628Z,0.93
2022-09-23T12:49:01.957Z,1.10
2022-09-23T12:51:31.753Z,1.00
2022-09-23T12:54:24.485Z,1.13
2022-09-23T12:57:06.819Z,1.10
2022-09-23T12:59:56.561Z,1.13
2022-09-23T13:02:28.787Z,1.00
2022-09-23T13:05:18.015Z,1.30
2022-09-23T13:07:49.226Z,1.10
2022-09-23T13:10:19.763Z,1.20
2022-09-23T13:12:48.045Z,1.02
2022-09-23T13:15:27.712Z,1.00
2022-09-23T13:18:25.685Z,1.20
2022-09-23T13:20:54.901Z,1.10
2022-09-23T13:23:25.579Z,1.00
2022-09-23T13:25:55.578Z,0.90
2022-09-23T13:28:34.753Z,1.15
2022-09-23T13:31:07.384Z,1.23
2022-09-23T13:33:39.909Z,1.30
2022-09-23T13:36:13.236Z,1.15
2022-09-23T13:38:42.542Z,1.27
2022-09-23T13:41:14.911Z,1.02
2022-09-23T13:43:44.763Z,1.00
2022-09-23T13:46:14.544Z,1.10
2022-09-23T13:48:45.290Z,1.30
2022-09-23T13:51:19.407Z,1.23
2022-09-23T13:53:55.403Z,1.42
2022-09-23T13:56:24.890Z,1.30
2022-09-23T13:58:53.317Z,1.08
2022-09-23T14:01:32.285Z,1.15
2022-09-23T14:04:00.701Z,1.10
2022-09-23T14:06:31.081Z,1.10
2022-09-23T14:09:02.305Z,0.98
2022-09-23T14:11:31.935Z,1.02
2022-09-23T14:14:07.032Z,1.23
2022-09-23T14:16:38.578Z,1.20
2022-09-23T14:19:06.678Z,1.00
2022-09-23T14:21:36.043Z,1.33
2022-09-23T14:24:15.279Z,1.33
2022-09-23T14:26:43.761Z,1.10
2022-09-23T14:29:15.134Z,1.00
2022-09-23T14:31:46.129Z,1.00
2022-09-23T14:34:45.578Z,1.10
2022-09-23T14:37:42.022Z,1.02
2022-09-23T14:40:14.596Z,1.10
2022-09-23T14:42:44.570Z,1.20
2022-09-23T14:45:15.943Z,1.00
2022-09-23T14:47:46.224Z,1.10
2022-09-23T14:50:40.381Z,1.02
2022-09-23T14:53:33.805Z,1.00
2022-09-23T14:56:13.640Z,1.20
2022-09-23T14:58:48.140Z,1.15
2022-09-23T15:01:27.670Z,1.10
2022-09-23T15:03:57.553Z,1.30
2022-09-23T15:06:25.719Z,1.05
2022-09-23T15:08:54.353Z,1.13
2022-09-23T15:11:25.170Z,1.33
2022-09-23T15:13:54.215Z,1.15
2022-09-23T15:16:26.986Z,1.10
2022-09-23T15:18:57.648Z,0.98
2022-09-23T15:21:26.243Z,1.30
2022-09-23T15:23:56.086Z,1.15
2022-09-23T15:26:26.525Z,0.90
2022-09-23T15:28:58.342Z,1.23
2022-09-23T15:31:26.762Z,1.40
2022-09-23T15:33:55.985Z,1.10
2022-09-23T15:36:26.415Z,1.48
2022-09-23T15:38:56.003Z,1.10
2022-09-23T15:41:25.504Z,1.42
2022-09-23T15:43:53.402Z,1.40
2022-09-23T15:46:23.388Z,1.45
2022-09-23T15:49:00.025Z,5.20
2022-09-23T15:51:29.810Z,5.00
2022-09-23T15:53:58.752Z,3.00
2022-09-23T15:56:27.977Z,2.80
2022-09-23T15:58:55.860Z,1.90
2022-09-23T16:01:28.008Z,1.40
2022-09-23T16:03:57.013Z,1.60
2022-09-23T16:06:25.895Z,1.50
2022-09-23T16:08:54.203Z,1.55
2022-09-23T16:11:24.289Z,1.77
2022-09-23T16:13:53.595Z,1.73
2022-09-23T16:16:21.892Z,1.88
2022-09-23T16:18:50.071Z,2.20
2022-09-23T16:21:19.422Z,1.98
2022-09-23T16:23:49.911Z,1.80
2022-09-23T16:26:20.850Z,1.90
2022-09-23T16:28:50.521Z,1.70
2022-09-23T16:31:20.642Z,1.80
2022-09-23T16:33:51.264Z,2.03
2022-09-23T16:36:23.183Z,2.00
2022-09-23T16:38:51.162Z,1.80
2022-09-23T16:41:19.030Z,2.00
2022-09-23T16:43:46.972Z,1.70
2022-09-23T16:46:16.499Z,2.10
2022-09-23T16:48:49.807Z,2.10
2022-09-23T16:51:21.638Z,1.83
2022-09-23T16:53:50.506Z,2.45
2022-09-23T16:56:24.363Z,2.40
2022-09-23T16:58:56.287Z,2.80
2022-09-23T17:01:42.985Z,2.30
2022-09-23T17:04:12.771Z,2.67
2022-09-23T17:06:43.965Z,2.72
2022-09-23T17:09:12.498Z,2.55
2022-09-23T17:11:40.486Z,2.50
2022-09-23T17:14:10.241Z,2.22
2022-09-23T17:16:38.349Z,2.53
2022-09-23T17:19:07.902Z,2.78
2022-09-23T17:21:37.447Z,2.28
2022-09-23T17:24:06.425Z,2.33
2022-09-23T17:26:34.480Z,2.42
2022-09-23T17:29:02.451Z,2.50
2022-09-23T17:31:30.667Z,2.47
2022-09-23T17:33:58.576Z,2.67
2022-09-23T17:36:27.316Z,4.05
2022-09-23T17:38:57.098Z,2.63
2022-09-23T17:41:25.276Z,2.20
2022-09-23T17:43:58.475Z,2.55
2022-09-23T17:46:26.377Z,2.97
2022-09-23T17:48:55.484Z,2.55
2022-09-23T17:51:23.997Z,3.35
2022-09-23T17:53:52.165Z,3.55
2022-09-23T17:56:22.687Z,4.30
2022-09-23T17:58:50.890Z,5.50
2022-09-23T18:01:20.357Z,4.00
2022-09-23T18:03:48.578Z,3.13
2022-09-23T18:06:18.596Z,3.20
2022-09-23T18:08:47.628Z,3.30
2022-09-23T18:11:17.670Z,2.78
2022-09-23T18:13:50.395Z,2.95
2022-09-23T18:16:18.775Z,2.47
2022-09-23T18:18:51.091Z,3.15
2022-09-23T18:21:19.535Z,3.00
2022-09-23T18:23:47.498Z,4.15
2022-09-23T18:26:16.073Z,3.13
2022-09-23T18:28:44.021Z,3.00
2022-09-23T18:31:13.363Z,3.40
2022-09-23T18:33:41.780Z,3.10
2022-09-23T18:36:10.077Z,2.53
2022-09-23T18:38:37.907Z,3.08
2022-09-23T18:41:07.145Z,3.00
2022-09-23T18:43:41.452Z,3.22
2022-09-23T18:46:14.872Z,3.50
2022-09-23T18:49:00.303Z,3.08
2022-09-23T18:51:29.314Z,2.95
2022-09-23T18:53:58.542Z,3.10
2022-09-23T18:56:29.609Z,3.00
2022-09-23T18:58:58.059Z,3.15
2022-09-23T19:01:27.412Z,3.45
2022-09-23T19:03:56.231Z,3.45
2022-09-23T19:06:24.611Z,2.90
2022-09-23T19:08:53.949Z,2.70
2022-09-23T19:11:22.889Z,3.03
2022-09-23T19:13:55.183Z,3.40
2022-09-23T19:16:23.576Z,3.05
2022-09-23T19:18:53.175Z,3.17
2022-09-23T19:21:23.288Z,2.47
2022-09-23T19:23:53.044Z,2.80
2022-09-23T19:26:22.793Z,3.03
2022-09-23T19:28:51.381Z,2.92
2022-09-23T19:31:22.321Z,2.70
2022-09-23T19:33:56.589Z,2.53
2022-09-23T19:36:26.799Z,2.55
2022-09-23T19:38:55.871Z,2.90
2022-09-23T19:41:24.463Z,2.90
2022-09-23T19:43:56.836Z,2.40
2022-09-23T19:46:24.947Z,2.33
2022-09-23T19:48:54.271Z,2.35
2022-09-23T19:51:23.180Z,2.10
2022-09-23T19:53:51.116Z,1.90
2022-09-23T19:56:19.825Z,2.05
2022-09-23T19:58:51.481Z,2.22
2022-09-23T20:01:19.803Z,2.10
2022-09-23T20:03:48.679Z,2.50
2022-09-23T20:06:18.900Z,2.83
2022-09-23T20:08:47.808Z,2.40
2022-09-23T20:11:17.273Z,2.50
2022-09-23T20:13:47.078Z,2.88
2022-09-23T20:16:16.295Z,2.75
2022-09-23T20:18:44.440Z,2.67
2022-09-23T20:21:14.104Z,2.60
2022-09-23T20:23:43.869Z,2.53
2022-09-23T20:26:29.716Z,2.50
2022-09-23T20:29:01.339Z,2.67
2022-09-23T20:31:29.652Z,2.97
2022-09-23T20:33:59.250Z,2.97
2022-09-23T20:36:27.568Z,2.90
2022-09-23T20:38:57.254Z,2.90
2022-09-23T20:41:25.122Z,2.70
2022-09-23T20:43:53.929Z,2.70
2022-09-23T20:46:23.424Z,3.17
2022-09-23T20:48:51.679Z,2.63
2022-09-23T20:51:19.497Z,2.85
2022-09-23T20:53:51.778Z,2.55
2022-09-23T20:56:21.213Z,2.45
2022-09-23T20:58:50.717Z,2.58
2022-09-23T21:01:19.362Z,2.50
2022-09-23T21:03:49.997Z,2.50
2022-09-23T21:06:18.960Z,2.53
2022-09-23T21:08:47.190Z,2.60
2022-09-23T21:11:16.816Z,2.30
2022-09-23T21:13:48.195Z,2.35
2022-09-23T21:16:17.056Z,2.60
2022-09-23T21:18:45.545Z,2.50
2022-09-23T21:21:14.184Z,2.55
2022-09-23T21:23:43.254Z,2.72
2022-09-23T21:26:12.434Z,2.60
2022-09-23T21:28:41.430Z,2.42
2022-09-23T21:31:13.147Z,2.45
2022-09-23T21:33:41.124Z,2.72
2022-09-23T21:36:09.029Z,2.47
2022-09-23T21:38:37.320Z,2.53
2022-09-23T21:41:07.085Z,2.40
2022-09-23T21:43:37.276Z,2.63
2022-09-23T21:46:06.614Z,2.33
2022-09-23T21:48:36.791Z,3.10
2022-09-23T21:51:06.006Z,2.97
2022-09-23T21:53:36.304Z,3.03
2022-09-23T21:56:05.831Z,2.70
2022-09-23T21:58:34.469Z,3.00
2022-09-23T22:01:02.683Z,2.50
2022-09-23T22:03:30.605Z,2.65
2022-09-23T22:06:05.275Z,2.70
2022-09-23T22:08:36.721Z,3.08
2022-09-23T22:11:06.313Z,2.65
2022-09-23T22:13:34.685Z,2.63
2022-09-23T22:16:03.888Z,2.97
2022-09-23T22:18:31.875Z,2.20
2022-09-23T22:20:59.724Z,2.38
2022-09-23T22:23:29.014Z,2.42
2022-09-23T22:26:02.843Z,2.70
2022-09-23T22:28:51.088Z,2.50
2022-09-23T22:31:36.538Z,2.40
2022-09-23T22:34:04.583Z,2.72
2022-09-23T22:36:32.431Z,2.50
2022-09-23T22:39:03.016Z,2.85
2022-09-23T22:41:31.410Z,2.95
2022-09-23T22:44:00.302Z,2.72
2022-09-23T22:46:28.370Z,2.95
2022-09-23T22:48:56.224Z,2.97
2022-09-23T22:51:24.301Z,2.75
2022-09-23T22:53:53.030Z,3.20
2022-09-23T22:56:22.239Z,2.78
2022-09-23T22:59:18.584Z,3.10
2022-09-23T23:01:46.516Z,2.75
2022-09-23T23:04:14.544Z,3.03
2022-09-23T23:06:42.758Z,3.03
2022-09-23T23:09:12.103Z,2.53
2022-09-23T23:11:42.269Z,2.97
2022-09-23T23:14:10.448Z,2.40
2022-09-23T23:16:38.953Z,2.70
2022-09-23T23:19:09.478Z,2.65
2022-09-23T23:21:37.972Z,2.58
2022-09-23T23:24:07.055Z,2.65
2022-09-23T23:26:35.693Z,2.67
2022-09-23T23:29:04.860Z,2.70
2022-09-23T23:31:33.186Z,2.53
2022-09-23T23:34:01.159Z,2.40
2022-09-23T23:36:30.738Z,2.83
2022-09-23T23:38:58.654Z,2.63
2022-09-23T23:41:26.555Z,2.30
2022-09-23T23:43:55.954Z,2.40
2022-09-23T23:46:26.638Z,2.78
2022-09-23T23:48:54.953Z,2.38
2022-09-23T23:51:24.393Z,2.47
2022-09-23T23:53:53.178Z,2.60
2022-09-23T23:56:23.499Z,1.92
2022-09-23T23:58:55.063Z,2.38
